createdAt,value
2017-08-21T00:01:00.640Z,101227
2017-08-21T00:03:30.492Z,101228
2017-08-21T00:06:00.340Z,101228
2017-08-21T00:08:30.211Z,101229
2017-08-21T00:11:00.125Z,101233
2017-08-21T00:13:29.962Z,101216
2017-08-21T00:15:59.916Z,101237
2017-08-21T00:18:29.845Z,101233
2017-08-21T00:20:59.747Z,101211
2017-08-21T00:23:29.660Z,101239
2017-08-21T00:25:59.532Z,101235
2017-08-21T00:28:29.449Z,101232
2017-08-21T00:30:59.311Z,101241
2017-08-21T00:33:29.212Z,101241
2017-08-21T00:35:59.081Z,101243
2017-08-21T00:38:28.967Z,101239
2017-08-21T00:40:58.838Z,101240
2017-08-21T00:43:28.708Z,101243
2017-08-21T00:45:58.608Z,101224
2017-08-21T00:48:28.510Z,101241
2017-08-21T00:50:58.396Z,101249
2017-08-21T00:53:28.328Z,101247
2017-08-21T00:55:58.222Z,101243
2017-08-21T00:58:28.090Z,101232
2017-08-21T01:00:58.016Z,101239
2017-08-21T01:03:27.948Z,101239
2017-08-21T01:05:57.931Z,101240
2017-08-21T01:08:27.793Z,101238
2017-08-21T01:10:57.652Z,101235
2017-08-21T01:13:27.559Z,101241
2017-08-21T01:15:57.472Z,101240
2017-08-21T01:18:27.485Z,101237
2017-08-21T01:20:57.447Z,101239
2017-08-21T01:23:27.368Z,101232
2017-08-21T01:25:57.230Z,101241
2017-08-21T01:28:27.143Z,101231
2017-08-21T01:30:56.998Z,101236
2017-08-21T01:33:26.914Z,101225
2017-08-21T01:35:56.941Z,101236
2017-08-21T01:38:26.797Z,101240
2017-08-21T01:40:56.714Z,101231
2017-08-21T01:43:26.608Z,101228
2017-08-21T01:45:56.487Z,101198
2017-08-21T01:48:26.379Z,101228
2017-08-21T01:50:56.762Z,101231
2017-08-21T01:53:26.637Z,101222
2017-08-21T01:55:56.521Z,101229
2017-08-21T01:58:26.410Z,101225
2017-08-21T02:00:56.327Z,101219
2017-08-21T02:03:26.217Z,101223
2017-08-21T02:05:56.132Z,101223
2017-08-21T02:08:26.000Z,101223
2017-08-21T02:10:55.933Z,101228
2017-08-21T02:13:25.790Z,101229
2017-08-21T02:15:55.668Z,101230
2017-08-21T02:18:25.554Z,101223
2017-08-21T02:20:55.437Z,101220
2017-08-21T02:23:25.321Z,101223
2017-08-21T02:25:55.196Z,101226
2017-08-21T02:28:25.085Z,101223
2017-08-21T02:30:54.944Z,101220
2017-08-21T02:33:24.811Z,101225
2017-08-21T02:35:54.698Z,101229
2017-08-21T02:38:36.334Z,101220
2017-08-21T02:41:06.438Z,101223
2017-08-21T02:43:37.028Z,101201
2017-08-21T02:46:06.942Z,101225
2017-08-21T02:48:36.889Z,101223
2017-08-21T02:51:06.770Z,101220
2017-08-21T02:53:37.012Z,101217
2017-08-21T02:56:06.884Z,101222
2017-08-21T02:58:36.840Z,101218
2017-08-21T03:01:06.734Z,101228
2017-08-21T03:03:36.645Z,101220
2017-08-21T03:06:06.527Z,101182
2017-08-21T03:08:36.451Z,101229
2017-08-21T03:11:06.390Z,101231
2017-08-21T03:13:36.298Z,101220
2017-08-21T03:16:06.177Z,101232
2017-08-21T03:18:36.058Z,101232
2017-08-21T03:21:05.937Z,101232
2017-08-21T03:23:35.805Z,101223
2017-08-21T03:26:05.707Z,101223
2017-08-21T03:28:35.609Z,101229
2017-08-21T03:31:05.494Z,101226
2017-08-21T03:33:35.352Z,101223
2017-08-21T03:36:05.217Z,101221
2017-08-21T03:38:35.097Z,101228
2017-08-21T03:41:04.965Z,101229
2017-08-21T03:43:34.837Z,101223
2017-08-21T03:46:04.723Z,101227
2017-08-21T03:48:34.570Z,101228
2017-08-21T03:51:04.467Z,101231
2017-08-21T03:53:34.338Z,101228
2017-08-21T03:56:04.367Z,101226
2017-08-21T03:58:34.233Z,101081
2017-08-21T04:01:04.129Z,101221
2017-08-21T04:03:34.009Z,101229
2017-08-21T04:06:03.950Z,101221
2017-08-21T04:08:33.805Z,101221
2017-08-21T04:11:03.682Z,101231
2017-08-21T04:13:33.816Z,101233
2017-08-21T04:16:03.844Z,101228
2017-08-21T04:18:33.735Z,101222
2017-08-21T04:21:03.663Z,101224
2017-08-21T04:23:34.402Z,101231
2017-08-21T04:26:04.259Z,101233
2017-08-21T04:28:34.143Z,101232
2017-08-21T04:31:04.008Z,101235
2017-08-21T04:33:33.905Z,101235
2017-08-21T04:36:03.780Z,101234
2017-08-21T04:38:33.662Z,101238
2017-08-21T04:41:03.594Z,101239
2017-08-21T04:43:33.442Z,101237
2017-08-21T04:46:03.333Z,101232
2017-08-21T04:48:33.195Z,101235
2017-08-21T04:51:03.117Z,101236
2017-08-21T04:53:33.128Z,101242
2017-08-21T04:56:03.036Z,101243
2017-08-21T04:58:32.922Z,101242
2017-08-21T05:01:02.888Z,101241
2017-08-21T05:03:32.833Z,101251
2017-08-21T05:06:02.720Z,101250
2017-08-21T05:08:32.615Z,101259
2017-08-21T05:11:02.478Z,101263
2017-08-21T05:13:32.352Z,101264
2017-08-21T05:16:02.222Z,101265
2017-08-21T05:18:32.139Z,101256
2017-08-21T05:21:02.060Z,101260
2017-08-21T05:23:31.973Z,101269
2017-08-21T05:26:01.826Z,101260
2017-08-21T05:28:31.701Z,101267
2017-08-21T05:31:01.580Z,101258
2017-08-21T05:33:31.468Z,101271
2017-08-21T05:36:01.357Z,101263
2017-08-21T05:38:31.250Z,101262
2017-08-21T05:41:01.203Z,101264
2017-08-21T05:43:31.080Z,101269
2017-08-21T05:46:00.970Z,101267
2017-08-21T05:48:30.863Z,101264
2017-08-21T05:51:00.798Z,101269
2017-08-21T05:53:30.687Z,101260
2017-08-21T05:56:00.588Z,101264
2017-08-21T05:58:30.569Z,101261
2017-08-21T06:01:00.446Z,101258
2017-08-21T06:03:30.339Z,101261
2017-08-21T06:06:00.303Z,101263
2017-08-21T06:08:30.230Z,101247
2017-08-21T06:11:00.155Z,101266
2017-08-21T06:13:30.060Z,101274
2017-08-21T06:15:59.912Z,101269
2017-08-21T06:18:29.796Z,101270
2017-08-21T06:20:59.685Z,101273
2017-08-21T06:23:29.594Z,101274
2017-08-21T06:25:59.506Z,101271
2017-08-21T06:28:29.469Z,101268
2017-08-21T06:30:59.376Z,101273
2017-08-21T06:33:29.246Z,101278
2017-08-21T06:35:59.206Z,101284
2017-08-21T06:38:29.071Z,101286
2017-08-21T06:40:58.962Z,101282
2017-08-21T06:43:28.836Z,101282
2017-08-21T06:45:58.698Z,101280
2017-08-21T06:48:28.661Z,101283
2017-08-21T06:50:58.524Z,101279
2017-08-21T06:53:28.428Z,101278
2017-08-21T06:55:58.305Z,101284
2017-08-21T06:58:28.192Z,101283
2017-08-21T07:00:58.053Z,101282
2017-08-21T07:03:27.950Z,101281
2017-08-21T07:05:57.863Z,101291
2017-08-21T07:08:27.745Z,101293
2017-08-21T07:10:57.638Z,101287
2017-08-21T07:13:27.518Z,101294
2017-08-21T07:15:57.428Z,101294
2017-08-21T07:18:27.304Z,101299
2017-08-21T07:20:57.235Z,101293
2017-08-21T07:23:27.110Z,101295
2017-08-21T07:25:57.035Z,101293
2017-08-21T07:28:26.919Z,101293
2017-08-21T07:30:56.827Z,101298
2017-08-21T07:33:27.077Z,101302
2017-08-21T07:35:56.953Z,101306
2017-08-21T07:38:26.843Z,101311
2017-08-21T07:40:56.749Z,101308
2017-08-21T07:43:26.635Z,101303
2017-08-21T07:45:56.646Z,101301
2017-08-21T07:48:26.507Z,101304
2017-08-21T07:50:56.405Z,101307
2017-08-21T07:53:26.274Z,101312
2017-08-21T07:55:57.090Z,101310
2017-08-21T07:58:27.264Z,101309
2017-08-21T08:00:58.056Z,101307
2017-08-21T08:03:28.023Z,101307
2017-08-21T08:05:57.948Z,101310
2017-08-21T08:08:28.031Z,101303
2017-08-21T08:10:58.149Z,101317
2017-08-21T08:13:31.878Z,101318
2017-08-21T08:16:01.887Z,101319
2017-08-21T08:18:34.677Z,101319
2017-08-21T08:21:04.572Z,101321
2017-08-21T08:23:35.537Z,101321
2017-08-21T08:26:06.336Z,101314
2017-08-21T08:28:36.700Z,101322
2017-08-21T08:31:06.580Z,101322
2017-08-21T08:33:36.507Z,101323
2017-08-21T08:36:09.827Z,101316
2017-08-21T08:38:39.941Z,101315
2017-08-21T08:41:09.815Z,101323
2017-08-21T08:44:07.424Z,101312
2017-08-21T08:46:37.318Z,101317
2017-08-21T08:49:07.194Z,101323
2017-08-21T08:51:37.100Z,101323
2017-08-21T08:54:06.958Z,101326
2017-08-21T08:56:37.022Z,101312
2017-08-21T08:59:06.912Z,101318
2017-08-21T09:01:36.783Z,101321
2017-08-21T09:04:06.666Z,101334
2017-08-21T09:06:36.549Z,101336
2017-08-21T09:09:06.429Z,101335
2017-08-21T09:11:36.339Z,101331
2017-08-21T09:14:06.214Z,101331
2017-08-21T09:16:36.119Z,101252
2017-08-21T09:19:05.974Z,101332
2017-08-21T09:21:36.675Z,101334
2017-08-21T09:24:06.540Z,101338
2017-08-21T09:26:36.449Z,101346
2017-08-21T09:29:06.305Z,101344
2017-08-21T09:31:36.198Z,101340
2017-08-21T09:34:06.058Z,101351
2017-08-21T09:36:35.973Z,101346
2017-08-21T09:39:06.008Z,101355
2017-08-21T09:41:35.916Z,101343
2017-08-21T09:44:05.791Z,101355
2017-08-21T09:46:35.709Z,101342
2017-08-21T09:49:05.675Z,101348
2017-08-21T09:51:35.533Z,101362
2017-08-21T09:54:05.424Z,101364
2017-08-21T09:56:35.275Z,101349
2017-08-21T09:59:05.158Z,101352
2017-08-21T10:01:35.018Z,101345
2017-08-21T10:04:04.907Z,101346
2017-08-21T10:06:34.757Z,101341
2017-08-21T10:09:04.615Z,101337
2017-08-21T10:11:34.555Z,101339
2017-08-21T10:14:04.442Z,101344
2017-08-21T10:16:34.366Z,101330
2017-08-21T10:19:04.227Z,101336
2017-08-21T10:21:34.122Z,101327
2017-08-21T10:24:03.992Z,101333
2017-08-21T10:26:33.888Z,101333
2017-08-21T10:29:03.740Z,101322
2017-08-21T10:31:33.605Z,101331
2017-08-21T10:34:03.473Z,101327
2017-08-21T10:36:33.311Z,101331
2017-08-21T10:39:03.184Z,101323
2017-08-21T10:41:33.028Z,101332
2017-08-21T10:44:02.906Z,101339
2017-08-21T10:46:32.797Z,101336
2017-08-21T10:49:02.708Z,101334
2017-08-21T10:51:32.580Z,101335
2017-08-21T10:54:02.459Z,101334
2017-08-21T10:56:32.345Z,101334
2017-08-21T10:59:02.197Z,101325
2017-08-21T11:01:32.202Z,101325
2017-08-21T11:04:02.272Z,101324
2017-08-21T11:06:32.146Z,101337
2017-08-21T11:09:02.056Z,101312
2017-08-21T11:11:31.940Z,101331
2017-08-21T11:14:01.797Z,101326
2017-08-21T11:16:31.664Z,101329
2017-08-21T11:19:01.559Z,101320
2017-08-21T11:21:31.410Z,101329
2017-08-21T11:24:01.316Z,101324
2017-08-21T11:26:31.170Z,101312
2017-08-21T11:29:01.056Z,101314
2017-08-21T11:31:30.934Z,101320
2017-08-21T11:34:00.825Z,101311
2017-08-21T11:36:30.720Z,101316
2017-08-21T11:39:00.742Z,101322
2017-08-21T11:41:30.617Z,101327
2017-08-21T11:44:00.488Z,101326
2017-08-21T11:46:30.393Z,101329
2017-08-21T11:49:00.241Z,101330
2017-08-21T11:51:30.143Z,101329
2017-08-21T11:54:00.020Z,101320
2017-08-21T11:56:30.030Z,101329
2017-08-21T11:58:59.889Z,101334
2017-08-21T12:01:29.796Z,101325
2017-08-21T12:03:59.688Z,101322
2017-08-21T12:06:29.541Z,101335
2017-08-21T12:08:59.463Z,101335
2017-08-21T12:11:29.325Z,101329
2017-08-21T12:13:59.226Z,101329
2017-08-21T12:16:29.117Z,101321
2017-08-21T12:18:58.998Z,101327
2017-08-21T12:21:28.886Z,101319
2017-08-21T12:23:58.865Z,101324
2017-08-21T12:26:28.797Z,101325
2017-08-21T12:28:58.645Z,101316
2017-08-21T12:31:28.542Z,101315
2017-08-21T12:33:58.391Z,101320
2017-08-21T12:36:28.289Z,101320
2017-08-21T12:38:58.153Z,101327
2017-08-21T12:41:28.033Z,101335
2017-08-21T12:43:57.885Z,101331
2017-08-21T12:46:27.762Z,101332
2017-08-21T12:48:57.790Z,101337
2017-08-21T12:51:27.666Z,101331
2017-08-21T12:53:57.581Z,101344
2017-08-21T12:56:27.487Z,101334
2017-08-21T12:58:57.421Z,101341
2017-08-21T13:01:27.282Z,101338
2017-08-21T13:03:57.792Z,101328
2017-08-21T13:06:27.675Z,101349
2017-08-21T13:08:57.581Z,101335
2017-08-21T13:11:27.465Z,101350
2017-08-21T13:13:57.375Z,101346
2017-08-21T13:16:27.273Z,101345
2017-08-21T13:18:57.229Z,101349
2017-08-21T13:21:27.120Z,101338
2017-08-21T13:23:57.046Z,101343
2017-08-21T13:26:26.947Z,101352
2017-08-21T13:28:56.830Z,101338
2017-08-21T13:31:26.719Z,101346
2017-08-21T13:33:56.590Z,101341
2017-08-21T13:36:26.590Z,101348
2017-08-21T13:38:56.450Z,101356
2017-08-21T13:41:26.348Z,101350
2017-08-21T13:43:56.228Z,101350
2017-08-21T13:46:26.142Z,101352
2017-08-21T13:48:55.997Z,101357
2017-08-21T13:51:25.890Z,101344
2017-08-21T13:53:55.901Z,101349
2017-08-21T13:56:25.766Z,101346
2017-08-21T13:58:55.688Z,101342
2017-08-21T14:01:25.541Z,101352
2017-08-21T14:03:55.500Z,101347
2017-08-21T14:06:25.357Z,101348
2017-08-21T14:08:55.324Z,101333
2017-08-21T14:11:25.180Z,101340
2017-08-21T14:13:55.043Z,101341
2017-08-21T14:16:24.913Z,101346
2017-08-21T14:18:54.802Z,101338
2017-08-21T14:21:24.739Z,101350
2017-08-21T14:23:54.672Z,101357
2017-08-21T14:26:24.571Z,101360
2017-08-21T14:28:55.345Z,100985
2017-08-21T14:31:25.363Z,101355
2017-08-21T14:33:55.268Z,101360
2017-08-21T14:36:25.273Z,101356
2017-08-21T14:38:55.241Z,101356
2017-08-21T14:41:25.116Z,101352
2017-08-21T14:43:55.012Z,101364
2017-08-21T14:46:24.935Z,101360
2017-08-21T14:48:54.836Z,101362
2017-08-21T14:51:24.735Z,101362
2017-08-21T14:53:54.738Z,101371
2017-08-21T14:56:24.597Z,101366
2017-08-21T14:58:54.514Z,101362
2017-08-21T15:01:24.427Z,101364
2017-08-21T15:03:54.337Z,101363
2017-08-21T15:06:24.212Z,101366
2017-08-21T15:08:54.150Z,101366
2017-08-21T15:11:24.146Z,101360
2017-08-21T15:13:54.085Z,101360
2017-08-21T15:16:24.005Z,101350
2017-08-21T15:18:53.926Z,101356
2017-08-21T15:21:23.794Z,101346
2017-08-21T15:23:55.178Z,101135
2017-08-21T15:26:26.053Z,101367
2017-08-21T15:28:55.909Z,101361
2017-08-21T15:31:25.793Z,101366
2017-08-21T15:33:55.751Z,101368
2017-08-21T15:36:25.625Z,101367
2017-08-21T15:38:55.575Z,101369
2017-08-21T15:41:25.468Z,101370
2017-08-21T15:43:56.034Z,101364
2017-08-21T15:46:25.919Z,101362
2017-08-21T15:48:56.624Z,101356
2017-08-21T15:51:26.535Z,101366
2017-08-21T15:53:56.393Z,101272
2017-08-21T15:56:26.285Z,101357
2017-08-21T15:58:56.170Z,101356
2017-08-21T16:01:26.060Z,101352
2017-08-21T16:03:55.932Z,101361
2017-08-21T16:06:25.839Z,101362
2017-08-21T16:08:55.795Z,101359
2017-08-21T16:11:25.678Z,101369
2017-08-21T16:13:55.594Z,101373
2017-08-21T16:16:25.793Z,101370
2017-08-21T16:18:55.844Z,101382
2017-08-21T16:21:25.725Z,101375
2017-08-21T16:23:55.657Z,101364
2017-08-21T16:26:25.523Z,101367
2017-08-21T16:28:55.438Z,101359
2017-08-21T16:31:25.348Z,101362
2017-08-21T16:33:55.237Z,101356
2017-08-21T16:36:25.099Z,101348
2017-08-21T16:38:55.000Z,101358
2017-08-21T16:41:24.860Z,101358
2017-08-21T16:43:54.721Z,101362
2017-08-21T16:46:25.649Z,101360
2017-08-21T16:48:55.506Z,101356
2017-08-21T16:51:25.516Z,101367
2017-08-21T16:53:55.378Z,101356
2017-08-21T16:56:25.278Z,101361
2017-08-21T16:58:55.119Z,101359
2017-08-21T17:01:25.055Z,101360
2017-08-21T17:03:54.913Z,101371
2017-08-21T17:06:24.813Z,101368
2017-08-21T17:08:54.710Z,101368
2017-08-21T17:11:24.734Z,101388
2017-08-21T17:13:54.657Z,101368
2017-08-21T17:16:24.530Z,101366
2017-08-21T17:18:54.423Z,101381
2017-08-21T17:21:24.374Z,101371
2017-08-21T17:23:54.260Z,101369
2017-08-21T17:26:24.110Z,101381
2017-08-21T17:28:53.975Z,101370
2017-08-21T17:31:23.875Z,101378
2017-08-21T17:33:53.773Z,101384
2017-08-21T17:36:23.687Z,101383
2017-08-21T17:38:53.600Z,101376
2017-08-21T17:41:23.516Z,101377
2017-08-21T17:43:53.381Z,101382
2017-08-21T17:46:24.531Z,101388
2017-08-21T17:48:54.465Z,101377
2017-08-21T17:51:25.132Z,101386
2017-08-21T17:53:55.015Z,101387
2017-08-21T17:56:24.965Z,101389
2017-08-21T17:58:54.841Z,101398
2017-08-21T18:01:24.711Z,101391
2017-08-21T18:03:54.647Z,101388
2017-08-21T18:06:24.556Z,101391
2017-08-21T18:08:54.472Z,101396
2017-08-21T18:11:24.385Z,101397
2017-08-21T18:13:54.298Z,101395
2017-08-21T18:16:24.298Z,101394
2017-08-21T18:18:54.221Z,101316
2017-08-21T18:21:24.202Z,101390
2017-08-21T18:23:54.208Z,101392
2017-08-21T18:26:24.101Z,101396
2017-08-21T18:28:54.013Z,101399
2017-08-21T18:31:23.952Z,101401
2017-08-21T18:33:53.920Z,101400
2017-08-21T18:36:23.918Z,101405
2017-08-21T18:38:53.859Z,101412
2017-08-21T18:41:24.192Z,101403
2017-08-21T18:43:54.105Z,101401
2017-08-21T18:46:24.208Z,101410
2017-08-21T18:48:54.133Z,101405
2017-08-21T18:51:24.474Z,101424
2017-08-21T18:53:54.382Z,101415
2017-08-21T18:56:24.670Z,101414
2017-08-21T18:58:54.650Z,101418
2017-08-21T19:01:24.815Z,101418
2017-08-21T19:03:55.220Z,101410
2017-08-21T19:06:25.370Z,101419
2017-08-21T19:08:55.384Z,101420
2017-08-21T19:11:25.578Z,101429
2017-08-21T19:13:56.445Z,101429
2017-08-21T19:16:27.342Z,101431
2017-08-21T19:18:57.336Z,101417
2017-08-21T19:21:27.542Z,101429
2017-08-21T19:23:57.499Z,101435
2017-08-21T19:26:27.665Z,101437
2017-08-21T19:28:57.654Z,101444
2017-08-21T19:31:27.902Z,101438
2017-08-21T19:33:57.837Z,101439
2017-08-21T19:36:28.173Z,101440
2017-08-21T19:38:58.161Z,101436
2017-08-21T19:41:28.454Z,101445
2017-08-21T19:43:58.451Z,101443
2017-08-21T19:46:28.654Z,101442
2017-08-21T19:48:59.585Z,101435
2017-08-21T19:51:29.717Z,101441
2017-08-21T19:53:59.679Z,101437
2017-08-21T19:56:29.889Z,101440
2017-08-21T19:58:59.796Z,101435
2017-08-21T20:01:30.382Z,101435
2017-08-21T20:04:00.985Z,101293
2017-08-21T20:06:31.066Z,101447
2017-08-21T20:09:01.021Z,101446
2017-08-21T20:11:31.330Z,101447
2017-08-21T20:14:01.413Z,101452
2017-08-21T20:16:31.547Z,101453
2017-08-21T20:19:01.610Z,101451
2017-08-21T20:21:31.812Z,101444
2017-08-21T20:24:02.494Z,101444
2017-08-21T20:26:32.548Z,101438
2017-08-21T20:29:02.422Z,101434
2017-08-21T20:31:32.556Z,101440
2017-08-21T20:34:02.707Z,101450
2017-08-21T20:36:32.784Z,101435
2017-08-21T20:39:02.864Z,101440
2017-08-21T20:41:33.121Z,101444
2017-08-21T20:44:03.046Z,101443
2017-08-21T20:46:33.316Z,101442
2017-08-21T20:49:03.240Z,101438
2017-08-21T20:51:33.423Z,101445
2017-08-21T20:54:03.364Z,101439
2017-08-21T20:56:33.441Z,101442
2017-08-21T20:59:03.350Z,101446
2017-08-21T21:01:33.403Z,101443
2017-08-21T21:04:03.480Z,101454
2017-08-21T21:06:33.548Z,101441
2017-08-21T21:09:03.406Z,101452
2017-08-21T21:11:33.526Z,101457
2017-08-21T21:14:03.408Z,101456
2017-08-21T21:16:33.468Z,101458
2017-08-21T21:19:03.333Z,101455
2017-08-21T21:21:33.392Z,101452
2017-08-21T21:24:03.258Z,101444
2017-08-21T21:26:33.528Z,101449
2017-08-21T21:29:03.395Z,101454
2017-08-21T21:31:33.447Z,101446
2017-08-21T21:34:03.410Z,101452
2017-08-21T21:36:33.485Z,101434
2017-08-21T21:39:03.335Z,101437
2017-08-21T21:41:33.405Z,101445
2017-08-21T21:44:03.266Z,101438
2017-08-21T21:46:33.342Z,101440
2017-08-21T21:49:03.240Z,101440
2017-08-21T21:51:33.379Z,101437
2017-08-21T21:54:03.247Z,101441
2017-08-21T21:56:33.431Z,101433
2017-08-21T21:59:03.279Z,101431
2017-08-21T22:01:33.347Z,101433
2017-08-21T22:04:03.233Z,101432
2017-08-21T22:06:33.338Z,101432
2017-08-21T22:09:03.210Z,101429
2017-08-21T22:11:33.385Z,101441
2017-08-21T22:14:03.326Z,101434
2017-08-21T22:16:33.442Z,101436
2017-08-21T22:19:03.333Z,101437
2017-08-21T22:21:33.360Z,101445
2017-08-21T22:24:03.276Z,101452
2017-08-21T22:26:33.485Z,101447
2017-08-21T22:29:03.395Z,101447
2017-08-21T22:31:33.617Z,101446
2017-08-21T22:34:03.513Z,101448
2017-08-21T22:36:33.769Z,101443
2017-08-21T22:39:03.660Z,101440
2017-08-21T22:41:33.872Z,101435
2017-08-21T22:44:03.730Z,101432
2017-08-21T22:46:33.589Z,101434
2017-08-21T22:49:03.858Z,101435
2017-08-21T22:51:33.725Z,101432
2017-08-21T22:54:03.968Z,101433
2017-08-21T22:56:33.829Z,101434
2017-08-21T22:59:03.715Z,101435
2017-08-21T23:01:33.932Z,101430
2017-08-21T23:04:03.810Z,101427
2017-08-21T23:06:33.741Z,101431
2017-08-21T23:09:03.974Z,101433
2017-08-21T23:11:33.836Z,101424
2017-08-21T23:14:03.824Z,101430
2017-08-21T23:16:34.037Z,101424
2017-08-21T23:19:03.896Z,101426
2017-08-21T23:21:33.778Z,101428
2017-08-21T23:24:04.012Z,101429
2017-08-21T23:26:33.842Z,101429
2017-08-21T23:29:04.100Z,101427
2017-08-21T23:31:33.946Z,101436
2017-08-21T23:34:04.168Z,101430
2017-08-21T23:36:34.114Z,101429
2017-08-21T23:39:04.342Z,101427
2017-08-21T23:41:34.196Z,101436
2017-08-21T23:44:04.082Z,101429
2017-08-21T23:46:34.215Z,101430
2017-08-21T23:49:04.082Z,101424
2017-08-21T23:51:33.950Z,101424
2017-08-21T23:54:04.168Z,101422
2017-08-21T23:56:34.016Z,101415
2017-08-21T23:59:04.204Z,101428
